Time;durP1;ratioP1;P1;durP2;ratioP2;P2;SDS_P1;SDS_P2;PMS_P1;PMS_P2;Temp;Humidity;BMP_temperature;BMP_pressure;BME280_temperature;BME280_humidity;BME280_pressure;Samples;Min_cycle;Max_cycle;Signal;HPM_P1;HPM_P2
2024/01/01 00:01:00;;;;;;;36.72;22.95;;;9.60;85.20;;;;;;5052831;28;20079;-37
2024/01/01 00:03:26;;;;;;;36.83;22.23;;;9.70;85.20;;;;;;5052859;28;20029;-39
2024/01/01 00:05:51;;;;;;;31.95;19.27;;;9.70;85.20;;;;;;5052577;28;20024;-38
2024/01/01 00:08:17;;;;;;;29.75;17.55;;;9.60;84.80;;;;;;5053259;28;20063;-38
2024/01/01 00:10:44;;;;;;;25.40;14.77;;;9.70;84.90;;;;;;5052990;28;20017;-37
2024/01/01 00:13:09;;;;;;;29.58;14.10;;;9.70;84.70;;;;;;5053047;28;20029;-37
2024/01/01 00:15:35;;;;;;;22.13;12.45;;;9.60;84.20;;;;;;5052567;28;20025;-38
2024/01/01 00:18:00;;;;;;;21.40;12.13;;;9.70;84.10;;;;;;5052564;28;20040;-38
2024/01/01 00:20:26;;;;;;;17.85;10.43;;;9.60;83.50;;;;;;5052987;28;20083;-39
2024/01/01 00:22:52;;;;;;;21.08;10.48;;;9.60;83.70;;;;;;5052348;28;20453;-37
2024/01/01 00:25:17;;;;;;;18.50;10.05;;;9.70;83.60;;;;;;5052618;28;20526;-38
2024/01/01 00:27:43;;;;;;;18.20;9.43;;;9.60;83.60;;;;;;5052335;28;20059;-39
2024/01/01 00:30:09;;;;;;;18.65;9.32;;;9.60;83.60;;;;;;5052645;28;20032;-39
2024/01/01 00:32:35;;;;;;;18.08;8.98;;;9.60;83.90;;;;;;5052403;28;20037;-38
2024/01/01 00:35:00;;;;;;;18.45;8.80;;;9.50;84.20;;;;;;5052397;28;20112;-37
2024/01/01 00:37:26;;;;;;;12.88;8.10;;;9.50;84.50;;;;;;5052579;28;20428;-38
2024/01/01 00:39:51;;;;;;;13.40;6.45;;;9.50;84.60;;;;;;5052270;28;20036;-37
2024/01/01 00:42:17;;;;;;;10.55;6.53;;;9.50;84.50;;;;;;5051082;28;20076;-40
2024/01/01 00:44:44;;;;;;;10.13;4.88;;;9.40;84.40;;;;;;5052451;28;20396;-38
2024/01/01 00:47:10;;;;;;;8.45;4.60;;;9.40;83.40;;;;;;5051960;28;20070;-38
2024/01/01 00:49:35;;;;;;;10.05;4.35;;;9.40;83.70;;;;;;5052051;28;20029;-39
2024/01/01 00:52:01;;;;;;;10.40;4.43;;;9.40;83.90;;;;;;5052059;28;20032;-39
2024/01/01 00:54:28;;;;;;;10.10;4.55;;;9.40;83.70;;;;;;5051760;28;20017;-38
2024/01/01 00:56:54;;;;;;;8.18;4.20;;;9.40;83.60;;;;;;5051696;28;20025;-38
2024/01/01 00:59:21;;;;;;;8.45;4.30;;;9.40;83.60;;;;;;5051792;28;20025;-37
2024/01/01 01:01:46;;;;;;;8.32;3.72;;;9.30;83.40;;;;;;5051707;28;20029;-39
2024/01/01 01:04:12;;;;;;;9.20;3.25;;;9.30;83.40;;;;;;5051941;28;20108;-38
2024/01/01 01:06:38;;;;;;;9.13;3.60;;;9.30;83.40;;;;;;5051884;28;20098;-39
2024/01/01 01:09:03;;;;;;;5.88;3.00;;;9.30;83.80;;;;;;5051777;28;20021;-38
2024/01/01 01:11:29;;;;;;;13.18;2.92;;;9.30;83.90;;;;;;5052039;28;20377;-38
2024/01/01 01:13:56;;;;;;;3.92;1.90;;;9.20;83.40;;;;;;5052159;28;20021;-38
2024/01/01 01:16:22;;;;;;;5.07;1.50;;;9.20;83.10;;;;;;5051905;28;20021;-38
2024/01/01 01:18:48;;;;;;;4.25;1.73;;;9.20;83.10;;;;;;5051963;28;20013;-38
2024/01/01 01:21:14;;;;;;;4.53;1.83;;;9.20;83.30;;;;;;5052038;28;20017;-36
2024/01/01 01:23:39;;;;;;;4.15;1.67;;;9.20;83.40;;;;;;5051601;28;20064;-38
2024/01/01 01:26:05;;;;;;;2.90;1.65;;;9.20;83.00;;;;;;5051900;28;20025;-38
2024/01/01 01:28:31;;;;;;;4.90;1.70;;;9.10;83.20;;;;;;5051542;28;20021;-37
2024/01/01 01:30:56;;;;;;;4.35;2.08;;;9.10;83.20;;;;;;5051864;28;20022;-38
2024/01/01 01:33:22;;;;;;;4.35;2.15;;;9.10;83.40;;;;;;5051480;28;20087;-38
2024/01/01 01:35:47;;;;;;;4.40;2.00;;;9.10;83.50;;;;;;5051461;28;20025;-38
2024/01/01 01:38:13;;;;;;;3.58;1.70;;;9.10;83.20;;;;;;5050243;28;20190;-38
2024/01/01 01:40:38;;;;;;;2.50;1.70;;;9.00;83.00;;;;;;5051491;28;20021;-39
2024/01/01 01:43:19;;;;;;;4.20;1.75;;;9.00;83.30;;;;;;5051602;28;20033;-38
2024/01/01 01:45:45;;;;;;;4.28;1.60;;;8.90;83.30;;;;;;5051535;28;20025;-38
2024/01/01 01:48:11;;;;;;;3.00;1.17;;;8.90;83.20;;;;;;5051558;28;20036;-37
2024/01/01 01:50:37;;;;;;;4.20;1.63;;;8.80;83.40;;;;;;5051612;28;20021;-38
2024/01/01 01:53:03;;;;;;;5.18;1.50;;;8.90;83.50;;;;;;5051341;28;20036;-37
2024/01/01 01:55:28;;;;;;;6.25;1.80;;;8.80;83.50;;;;;;5051481;28;20420;-39
2024/01/01 01:57:54;;;;;;;5.15;2.00;;;8.80;83.40;;;;;;5051183;28;20025;-37
2024/01/01 02:00:20;;;;;;;6.00;2.25;;;8.70;83.40;;;;;;5051096;28;20040;-36
2024/01/01 02:02:47;;;;;;;5.82;2.00;;;8.70;83.30;;;;;;5050929;28;20025;-38
2024/01/01 02:05:12;;;;;;;5.38;1.65;;;8.70;83.40;;;;;;5052216;28;20362;-38
2024/01/01 02:07:39;;;;;;;7.22;2.35;;;8.70;83.70;;;;;;5055094;28;20027;-38
2024/01/01 02:10:05;;;;;;;6.20;2.30;;;8.60;83.80;;;;;;5055031;28;20036;-38
2024/01/01 02:12:31;;;;;;;6.35;1.95;;;8.60;83.90;;;;;;5055308;28;20025;-39
2024/01/01 02:14:57;;;;;;;6.13;2.70;;;8.70;84.00;;;;;;5055188;28;20033;-38
2024/01/01 02:17:23;;;;;;;6.32;2.40;;;8.60;84.10;;;;;;5055180;28;20024;-38
2024/01/01 02:19:50;;;;;;;4.38;2.00;;;8.60;84.20;;;;;;5054911;28;20025;-39
2024/01/01 02:22:16;;;;;;;8.57;2.65;;;8.60;84.20;;;;;;5054691;28;20036;-38
2024/01/01 02:24:41;;;;;;;6.60;2.30;;;8.60;84.40;;;;;;5054830;28;20321;-38
2024/01/01 02:27:07;;;;;;;4.95;1.90;;;8.60;84.40;;;;;;5054490;28;20025;-37
2024/01/01 02:29:32;;;;;;;4.18;2.20;;;8.60;84.50;;;;;;5054960;28;20096;-37
2024/01/01 02:31:58;;;;;;;5.63;2.00;;;8.60;84.60;;;;;;5054793;28;20021;-38
2024/01/01 02:34:24;;;;;;;3.92;1.67;;;8.60;84.70;;;;;;5054877;28;20031;-38
2024/01/01 02:36:50;;;;;;;6.93;2.25;;;8.60;84.80;;;;;;5054721;28;20029;-37
2024/01/01 02:39:16;;;;;;;6.68;2.00;;;8.60;84.80;;;;;;5054527;28;20531;-36
2024/01/01 02:41:41;;;;;;;6.55;2.13;;;8.60;84.90;;;;;;5054314;28;20470;-37
2024/01/01 02:44:07;;;;;;;5.07;2.10;;;8.60;84.90;;;;;;5054308;28;20050;-38
2024/01/01 02:46:32;;;;;;;5.85;2.00;;;8.60;84.90;;;;;;5054272;28;20100;-38
2024/01/01 02:49:01;;;;;;;5.70;2.10;;;8.60;85.10;;;;;;5054721;28;20052;-38
2024/01/01 02:51:26;;;;;;;6.40;2.30;;;8.60;85.40;;;;;;5054521;28;20120;-38
2024/01/01 02:53:52;;;;;;;8.27;2.55;;;8.60;85.60;;;;;;5054270;28;20444;-36
2024/01/01 02:56:25;;;;;;;5.65;2.28;;;8.60;85.90;;;;;;5054448;28;20029;-39
2024/01/01 02:58:52;;;;;;;5.40;2.70;;;8.60;86.20;;;;;;5054066;28;20025;-38
2024/01/01 03:01:18;;;;;;;5.75;2.10;;;8.50;86.40;;;;;;5054025;28;20021;-38
2024/01/01 03:03:44;;;;;;;7.20;2.15;;;8.50;86.70;;;;;;5053914;28;20032;-38
2024/01/01 03:06:09;;;;;;;10.10;2.40;;;8.50;86.90;;;;;;5053985;28;20420;-38
2024/01/01 03:08:38;;;;;;;8.55;2.50;;;8.50;87.10;;;;;;5053942;28;20059;-38
2024/01/01 03:11:05;;;;;;;6.88;2.15;;;8.50;87.40;;;;;;5053882;28;20053;-37
2024/01/01 03:13:30;;;;;;;6.72;2.22;;;8.40;87.50;;;;;;5054084;28;20224;-37
2024/01/01 03:15:56;;;;;;;9.02;2.10;;;8.40;87.70;;;;;;5052352;28;20053;-37
2024/01/01 03:18:22;;;;;;;7.82;1.70;;;8.50;87.80;;;;;;5054037;28;20025;-37
2024/01/01 03:20:47;;;;;;;6.97;2.10;;;8.40;87.80;;;;;;5053954;28;20021;-37
2024/01/01 03:23:13;;;;;;;5.65;1.73;;;8.50;88.00;;;;;;5053564;28;20021;-37
2024/01/01 03:25:38;;;;;;;7.25;2.55;;;8.50;88.10;;;;;;5053473;28;20024;-37
2024/01/01 03:28:04;;;;;;;9.35;2.00;;;8.50;88.10;;;;;;5053799;28;20021;-38
2024/01/01 03:30:30;;;;;;;5.63;1.70;;;8.40;88.10;;;;;;5053797;28;20029;-38
2024/01/01 03:32:55;;;;;;;6.10;2.08;;;8.40;88.10;;;;;;5053387;28;20120;-37
2024/01/01 03:35:21;;;;;;;9.18;1.80;;;8.40;88.40;;;;;;5053315;28;20481;-37
2024/01/01 03:37:46;;;;;;;5.78;1.73;;;8.40;88.50;;;;;;5053450;28;20033;-38
2024/01/01 03:40:13;;;;;;;6.45;1.70;;;8.40;88.50;;;;;;5053763;28;20108;-37
2024/01/01 03:42:39;;;;;;;7.65;1.70;;;8.40;88.50;;;;;;5053153;28;20043;-38
2024/01/01 03:45:05;;;;;;;7.15;1.83;;;8.40;88.50;;;;;;5053210;28;20113;-37
2024/01/01 03:47:33;;;;;;;7.20;2.05;;;8.40;88.60;;;;;;5053376;28;20572;-36
2024/01/01 03:49:58;;;;;;;9.32;2.28;;;8.40;88.60;;;;;;5053746;28;20009;-38
2024/01/01 03:52:24;;;;;;;6.57;2.25;;;8.40;88.60;;;;;;5053354;28;20096;-36
2024/01/01 03:54:50;;;;;;;6.32;1.95;;;8.40;88.70;;;;;;5053211;28;20024;-37
2024/01/01 03:57:16;;;;;;;11.20;2.45;;;8.40;88.80;;;;;;5052856;28;20025;-37
2024/01/01 03:59:41;;;;;;;6.38;1.98;;;8.40;88.80;;;;;;5052946;28;20111;-36
2024/01/01 04:02:09;;;;;;;9.88;2.35;;;8.40;88.80;;;;;;5052943;28;20507;-38
2024/01/01 04:04:35;;;;;;;8.25;2.33;;;8.40;88.90;;;;;;5052715;28;20021;-37
2024/01/01 04:07:01;;;;;;;10.93;2.05;;;8.40;88.90;;;;;;5053236;28;20039;-36
2024/01/01 04:09:26;;;;;;;8.57;1.90;;;8.40;88.90;;;;;;5052943;28;20480;-38
2024/01/01 04:11:52;;;;;;;6.38;1.80;;;8.40;88.90;;;;;;5052662;28;20088;-36
2024/01/01 04:14:17;;;;;;;7.68;1.85;;;8.40;88.90;;;;;;5051382;28;20025;-38
2024/01/01 04:16:43;;;;;;;7.53;2.30;;;8.40;88.90;;;;;;5052544;28;20032;-36
2024/01/01 04:19:08;;;;;;;8.77;2.10;;;8.40;88.90;;;;;;5051606;28;20057;-38
2024/01/01 04:21:39;;;;;;;11.50;2.50;;;8.40;88.90;;;;;;5052420;28;20021;-36
2024/01/01 04:24:09;;;;;;;9.85;2.30;;;8.40;88.90;;;;;;5052669;28;20429;-37
2024/01/01 04:26:36;;;;;;;8.18;2.15;;;8.40;89.00;;;;;;5052352;28;20426;-37
2024/01/01 04:29:02;;;;;;;5.85;1.50;;;8.40;89.00;;;;;;5051948;28;20017;-37
2024/01/01 04:31:28;;;;;;;6.50;1.63;;;8.40;89.00;;;;;;5052168;28;20020;-37
2024/01/01 04:33:53;;;;;;;9.13;1.55;;;8.40;88.90;;;;;;5052190;28;20052;-38
2024/01/01 04:36:19;;;;;;;8.48;2.00;;;8.40;88.90;;;;;;5052160;28;20493;-38
2024/01/01 04:38:45;;;;;;;6.80;1.80;;;8.40;88.90;;;;;;5052257;28;20469;-36
2024/01/01 04:41:10;;;;;;;8.88;1.88;;;8.50;88.90;;;;;;5052168;28;20538;-37
2024/01/01 04:43:37;;;;;;;7.28;1.67;;;8.50;88.90;;;;;;5051959;28;20036;-36
2024/01/01 04:46:03;;;;;;;9.05;2.15;;;8.50;88.80;;;;;;5052224;28;20009;-36
2024/01/01 04:48:28;;;;;;;5.85;1.85;;;8.50;88.70;;;;;;5050913;28;20469;-39
2024/01/01 04:50:54;;;;;;;9.18;1.90;;;8.50;88.80;;;;;;5050970;28;20044;-37
2024/01/01 04:53:20;;;;;;;11.07;2.45;;;8.50;88.70;;;;;;5052346;28;20366;-38
2024/01/01 04:55:45;;;;;;;10.25;2.10;;;8.50;88.70;;;;;;5051811;28;20082;-37
2024/01/01 04:58:11;;;;;;;8.82;2.60;;;8.60;88.50;;;;;;5051892;28;20032;-37
2024/01/01 05:00:36;;;;;;;8.57;2.28;;;8.50;88.50;;;;;;5051801;28;20109;-39
2024/01/01 05:03:02;;;;;;;7.88;1.83;;;8.50;88.50;;;;;;5051654;28;20021;-37
2024/01/01 05:05:28;;;;;;;7.07;1.80;;;8.50;88.50;;;;;;5051754;28;20052;-39
2024/01/01 05:07:53;;;;;;;5.35;1.60;;;8.50;89.10;;;;;;5051919;28;20552;-37
2024/01/01 05:10:19;;;;;;;6.07;1.40;;;8.50;88.40;;;;;;5051849;28;20036;-37
2024/01/01 05:12:45;;;;;;;8.80;2.22;;;8.50;88.50;;;;;;5051971;28;20029;-37
2024/01/01 05:15:14;;;;;;;5.70;1.40;;;8.50;88.50;;;;;;5051849;28;20489;-37
2024/01/01 05:17:39;;;;;;;5.25;1.60;;;8.50;88.50;;;;;;5051739;28;20370;-38
2024/01/01 05:20:06;;;;;;;9.63;2.20;;;8.50;88.70;;;;;;5051872;28;20107;-37
2024/01/01 05:22:31;;;;;;;5.78;1.70;;;8.50;88.90;;;;;;5051477;28;20028;-36
2024/01/01 05:24:57;;;;;;;7.15;1.75;;;8.40;89.00;;;;;;5051220;28;20029;-37
2024/01/01 05:27:23;;;;;;;6.65;1.60;;;8.40;89.20;;;;;;5051176;28;20082;-38
2024/01/01 05:29:49;;;;;;;6.57;1.88;;;8.40;89.20;;;;;;5051820;28;20377;-37
2024/01/01 05:32:14;;;;;;;9.13;1.85;;;8.30;89.30;;;;;;5051309;28;20032;-37
2024/01/01 05:34:41;;;;;;;8.07;1.80;;;8.40;89.40;;;;;;5051516;28;20106;-37
2024/01/01 05:37:07;;;;;;;7.85;1.90;;;8.40;89.40;;;;;;5051380;28;20033;-36
2024/01/01 05:39:33;;;;;;;7.20;1.95;;;8.40;89.30;;;;;;5050439;28;20027;-39
2024/01/01 05:41:59;;;;;;;6.38;1.38;;;8.30;89.20;;;;;;5055722;28;20100;-39
2024/01/01 05:44:25;;;;;;;6.72;1.90;;;8.30;89.20;;;;;;5055506;28;20025;-37
2024/01/01 05:46:50;;;;;;;8.68;1.70;;;8.30;89.30;;;;;;5055367;28;20028;-37
2024/01/01 05:49:17;;;;;;;8.07;1.90;;;8.20;89.30;;;;;;5054208;28;20021;-36
2024/01/01 05:51:43;;;;;;;6.93;1.52;;;8.30;89.40;;;;;;5055632;28;20021;-37
2024/01/01 05:54:09;;;;;;;7.38;2.00;;;8.30;89.40;;;;;;5055231;28;20024;-37
2024/01/01 05:56:34;;;;;;;11.25;1.98;;;8.30;89.50;;;;;;5055126;28;20354;-36
2024/01/01 05:59:00;;;;;;;7.40;2.28;;;8.30;89.50;;;;;;5055308;28;20116;-37
2024/01/01 06:01:26;;;;;;;7.88;2.13;;;8.30;89.50;;;;;;5053825;28;20021;-37
2024/01/01 06:03:52;;;;;;;8.02;2.17;;;8.30;89.50;;;;;;5055472;28;20397;-36
2024/01/01 06:06:17;;;;;;;8.27;1.75;;;8.30;89.60;;;;;;5055175;28;20021;-37
2024/01/01 06:08:43;;;;;;;9.20;1.83;;;8.30;89.60;;;;;;5055154;28;20021;-38
2024/01/01 06:11:09;;;;;;;5.90;1.30;;;8.30;89.50;;;;;;5055372;28;20025;-38
2024/01/01 06:13:35;;;;;;;6.40;1.63;;;8.30;89.60;;;;;;5054865;28;20025;-37
2024/01/01 06:16:00;;;;;;;7.38;1.77;;;8.30;89.60;;;;;;5053664;28;20025;-38
2024/01/01 06:18:27;;;;;;;8.15;1.92;;;8.20;89.60;;;;;;5055161;28;20424;-38
2024/01/01 06:20:53;;;;;;;6.40;1.70;;;8.30;89.60;;;;;;5053983;28;20021;-38
2024/01/01 06:23:18;;;;;;;5.15;1.40;;;8.20;89.70;;;;;;5054932;28;20442;-37
2024/01/01 06:25:44;;;;;;;4.55;1.60;;;8.30;89.70;;;;;;5054648;28;20017;-37
2024/01/01 06:28:10;;;;;;;7.97;1.73;;;8.30;89.70;;;;;;5054673;28;20025;-38
2024/01/01 06:30:35;;;;;;;7.80;1.60;;;8.30;89.60;;;;;;5054514;28;20025;-38
2024/01/01 06:33:02;;;;;;;9.65;1.52;;;8.30;89.50;;;;;;5054037;28;20057;-38
2024/01/01 06:35:30;;;;;;;5.30;1.67;;;8.30;89.60;;;;;;5053503;28;20028;-36
2024/01/01 06:37:57;;;;;;;4.53;1.80;;;8.20;89.50;;;;;;5053570;28;20025;-38
2024/01/01 06:40:23;;;;;;;8.23;1.52;;;8.20;89.60;;;;;;5053586;28;20107;-37
2024/01/01 06:42:48;;;;;;;9.27;1.70;;;8.20;89.60;;;;;;5053240;28;20081;-37
2024/01/01 06:45:14;;;;;;;5.50;1.45;;;8.20;89.70;;;;;;5053145;28;20029;-36
2024/01/01 06:47:40;;;;;;;8.20;1.90;;;8.20;89.70;;;;;;5053189;28;20468;-39
2024/01/01 06:50:06;;;;;;;8.85;1.88;;;8.20;89.80;;;;;;5053099;28;20531;-38
2024/01/01 06:52:31;;;;;;;8.15;2.08;;;8.20;89.70;;;;;;5052645;28;20070;-38
2024/01/01 06:54:58;;;;;;;6.65;1.95;;;8.20;89.80;;;;;;5052983;28;20025;-37
2024/01/01 06:57:24;;;;;;;7.53;1.95;;;8.20;89.80;;;;;;5052773;28;20025;-37
2024/01/01 06:59:50;;;;;;;8.70;1.80;;;8.20;89.80;;;;;;5051751;28;20087;-37
2024/01/01 07:02:16;;;;;;;7.68;1.60;;;8.20;89.90;;;;;;5053063;28;20119;-38
2024/01/01 07:04:42;;;;;;;4.70;1.50;;;8.20;89.90;;;;;;5053258;28;20053;-37
2024/01/01 07:07:07;;;;;;;7.70;1.98;;;8.10;89.80;;;;;;5052796;28;20025;-38
2024/01/01 07:09:33;;;;;;;4.75;1.30;;;8.20;89.70;;;;;;5052807;28;20017;-37
2024/01/01 07:12:15;;;;;;;6.30;1.75;;;8.20;89.80;;;;;;5053102;28;20017;-38
2024/01/01 07:14:40;;;;;;;8.50;1.95;;;8.20;89.80;;;;;;5052793;28;20194;-39
2024/01/01 07:17:06;;;;;;;7.18;1.85;;;8.20;89.70;;;;;;5052885;28;20043;-36
2024/01/01 07:19:32;;;;;;;8.60;1.60;;;8.20;89.70;;;;;;5052800;28;20025;-38
2024/01/01 07:21:58;;;;;;;6.70;2.08;;;8.20;89.80;;;;;;5052415;28;20094;-38
2024/01/01 07:24:23;;;;;;;9.02;1.77;;;8.20;89.80;;;;;;5052995;28;20019;-37
2024/01/01 07:26:49;;;;;;;5.95;1.90;;;8.20;89.90;;;;;;5052423;28;20032;-37
2024/01/01 07:29:14;;;;;;;7.53;2.10;;;8.20;89.90;;;;;;5052647;28;20024;-37
2024/01/01 07:31:40;;;;;;;9.32;2.08;;;8.20;89.90;;;;;;5052659;28;20025;-37
2024/01/01 07:34:06;;;;;;;7.65;2.00;;;8.20;90.00;;;;;;5014769;28;1103654;-38
2024/01/01 07:36:31;;;;;;;7.22;2.05;;;8.20;90.00;;;;;;5052211;28;20154;-38
2024/01/01 07:38:57;;;;;;;7.65;1.92;;;8.20;90.00;;;;;;5053759;28;20079;-42
2024/01/01 07:41:22;;;;;;;9.45;1.85;;;8.10;90.30;;;;;;5053411;28;20048;-37
2024/01/01 07:43:48;;;;;;;7.35;1.85;;;8.10;90.00;;;;;;5053285;28;20033;-37
2024/01/01 07:46:13;;;;;;;9.05;2.50;;;8.20;90.10;;;;;;5053617;28;20033;-37
2024/01/01 07:48:39;;;;;;;5.18;2.10;;;8.20;90.30;;;;;;5053276;28;20025;-38
2024/01/01 07:51:05;;;;;;;8.18;2.22;;;8.20;90.00;;;;;;5053304;28;20051;-37
2024/01/01 07:53:30;;;;;;;9.68;2.30;;;8.20;90.00;;;;;;5053060;28;20052;-38
2024/01/01 07:55:56;;;;;;;7.80;2.03;;;8.20;90.10;;;;;;5051712;28;20061;-36
2024/01/01 07:58:23;;;;;;;6.20;2.00;;;8.20;90.10;;;;;;5052964;28;20032;-37
2024/01/01 08:00:48;;;;;;;6.30;2.15;;;8.20;90.10;;;;;;5053280;28;20412;-37
2024/01/01 08:03:14;;;;;;;6.95;1.83;;;8.20;90.20;;;;;;5052343;28;20029;-38
2024/01/01 08:05:40;;;;;;;6.32;1.70;;;8.20;90.20;;;;;;5052999;28;20576;-39
2024/01/01 08:08:06;;;;;;;7.63;2.08;;;8.20;90.20;;;;;;5052887;28;20543;-37
2024/01/01 08:10:32;;;;;;;4.30;1.80;;;8.20;90.20;;;;;;5052894;28;20040;-38
2024/01/01 08:12:57;;;;;;;7.28;2.10;;;8.20;90.20;;;;;;5052855;28;20028;-37
2024/01/01 08:15:24;;;;;;;8.35;1.90;;;8.30;90.30;;;;;;5052632;28;20366;-40
2024/01/01 08:17:50;;;;;;;7.22;1.60;;;8.20;90.20;;;;;;5052912;28;20071;-38
2024/01/01 08:20:16;;;;;;;8.38;1.83;;;8.20;90.20;;;;;;5052598;28;20057;-36
2024/01/01 08:22:41;;;;;;;5.93;1.70;;;8.30;90.30;;;;;;5052715;28;20033;-38
2024/01/01 08:25:07;;;;;;;6.43;1.95;;;8.30;90.30;;;;;;5052438;28;20406;-37
2024/01/01 08:27:33;;;;;;;9.45;2.05;;;8.30;90.30;;;;;;5052620;28;20052;-38
2024/01/01 08:29:58;;;;;;;10.40;2.33;;;8.30;90.30;;;;;;5052730;28;20108;-37
2024/01/01 08:32:24;;;;;;;10.35;2.00;;;8.30;90.30;;;;;;5052284;28;20478;-36
2024/01/01 08:34:49;;;;;;;5.35;2.10;;;8.30;90.40;;;;;;5052448;28;20436;-37
2024/01/01 08:37:16;;;;;;;10.63;3.00;;;8.30;90.40;;;;;;5052292;28;20025;-38
2024/01/01 08:39:42;;;;;;;6.55;2.05;;;8.30;90.40;;;;;;5052656;28;20472;-37
2024/01/01 08:42:07;;;;;;;10.75;2.58;;;8.30;90.40;;;;;;5050865;28;20028;-37
2024/01/01 08:44:33;;;;;;;7.93;1.95;;;8.30;90.40;;;;;;5052370;28;20481;-36
2024/01/01 08:46:58;;;;;;;6.03;2.00;;;8.30;90.50;;;;;;5052388;28;20492;-36
2024/01/01 08:49:24;;;;;;;7.72;2.15;;;8.30;90.60;;;;;;5052067;28;20029;-37
2024/01/01 08:51:49;;;;;;;10.27;2.70;;;8.20;90.70;;;;;;5052413;28;20388;-38
2024/01/01 08:54:16;;;;;;;5.88;1.95;;;8.20;90.70;;;;;;5052199;28;20095;-37
2024/01/01 08:56:43;;;;;;;10.07;2.28;;;8.20;90.80;;;;;;5051858;28;20148;-38
2024/01/01 08:59:10;;;;;;;6.05;1.98;;;8.20;90.90;;;;;;5051950;28;20025;-37
2024/01/01 09:01:36;;;;;;;6.95;2.00;;;8.20;90.90;;;;;;5050575;28;20041;-39
2024/01/01 09:04:04;;;;;;;10.80;2.30;;;8.20;90.90;;;;;;5052336;28;20021;-38
2024/01/01 09:06:30;;;;;;;9.02;2.28;;;8.20;91.00;;;;;;5051697;28;20025;-38
2024/01/01 09:08:59;;;;;;;8.23;2.60;;;8.20;91.00;;;;;;5052183;28;20045;-38
2024/01/01 09:11:25;;;;;;;6.68;2.30;;;8.10;91.00;;;;;;5052095;28;20170;-37
2024/01/01 09:13:50;;;;;;;6.65;2.17;;;8.20;91.10;;;;;;5051998;28;20477;-37
2024/01/01 09:16:16;;;;;;;6.78;1.80;;;8.20;91.10;;;;;;5051676;28;20463;-37
2024/01/01 09:18:42;;;;;;;9.45;2.42;;;8.20;91.10;;;;;;5051768;28;20033;-37
2024/01/01 09:21:15;;;;;;;7.22;2.25;;;8.20;91.10;;;;;;5051824;28;20037;-37
2024/01/01 09:23:41;;;;;;;9.68;2.03;;;8.20;91.10;;;;;;5051491;28;20033;-37
2024/01/01 09:26:07;;;;;;;5.50;2.13;;;8.20;91.10;;;;;;5050231;28;20384;-35
2024/01/01 09:28:33;;;;;;;8.70;2.13;;;8.10;91.10;;;;;;5051609;28;20025;-36
2024/01/01 09:30:59;;;;;;;6.05;2.05;;;8.10;91.10;;;;;;5051551;28;20032;-37
2024/01/01 09:33:25;;;;;;;8.20;1.98;;;8.10;91.10;;;;;;5051475;28;20052;-37
2024/01/01 09:35:52;;;;;;;7.53;2.00;;;8.10;91.10;;;;;;5051726;28;20389;-37
2024/01/01 09:38:18;;;;;;;7.00;2.47;;;8.10;91.20;;;;;;5051507;28;20036;-36
2024/01/01 09:40:45;;;;;;;8.50;2.35;;;8.10;91.20;;;;;;5051820;28;20029;-37
2024/01/01 09:43:17;;;;;;;6.82;2.13;;;8.20;91.20;;;;;;5051371;28;20041;-38
2024/01/01 09:45:46;;;;;;;4.93;1.90;;;8.20;91.20;;;;;;5051477;28;20025;-38
2024/01/01 09:48:12;;;;;;;6.75;2.22;;;8.30;91.20;;;;;;5051674;28;20048;-38
2024/01/01 09:50:37;;;;;;;5.57;2.10;;;8.30;91.20;;;;;;5051621;28;20021;-37
2024/01/01 09:53:03;;;;;;;5.18;1.77;;;8.30;91.20;;;;;;5051349;28;20021;-37
2024/01/01 09:55:30;;;;;;;5.57;1.88;;;8.30;91.20;;;;;;5051567;28;20037;-37
2024/01/01 09:57:55;;;;;;;6.90;2.22;;;8.40;91.20;;;;;;5051590;28;20378;-37
2024/01/01 10:00:22;;;;;;;5.40;1.90;;;8.40;91.20;;;;;;5051561;28;20043;-37
2024/01/01 10:02:48;;;;;;;4.28;2.00;;;8.30;91.10;;;;;;5051273;28;20456;-37
2024/01/01 10:05:15;;;;;;;5.10;1.67;;;8.30;91.20;;;;;;5051405;28;20021;-36
2024/01/01 10:07:41;;;;;;;6.43;2.13;;;8.30;91.30;;;;;;5051340;28;20025;-37
2024/01/01 10:10:07;;;;;;;7.75;2.30;;;8.30;91.30;;;;;;5051323;28;20079;-36
2024/01/01 10:12:33;;;;;;;8.00;1.88;;;8.30;91.40;;;;;;5051490;28;20485;-37
2024/01/01 10:14:59;;;;;;;5.65;1.65;;;8.30;91.50;;;;;;5051348;28;20120;-37
2024/01/01 10:17:25;;;;;;;4.15;1.50;;;8.30;91.50;;;;;;5051212;28;20051;-37
2024/01/01 10:19:56;;;;;;;6.25;1.90;;;8.30;91.50;;;;;;5051161;28;20109;-38
2024/01/01 10:22:23;;;;;;;5.53;1.77;;;8.40;91.50;;;;;;5051027;28;20393;-36
2024/01/01 10:24:55;;;;;;;7.85;1.73;;;8.40;91.50;;;;;;5051260;28;20025;-36
2024/01/01 10:27:24;;;;;;;4.40;1.70;;;8.30;91.50;;;;;;5054177;28;20419;-37
2024/01/01 10:29:50;;;;;;;5.20;1.60;;;8.30;91.50;;;;;;5054909;28;20543;-35
2024/01/01 10:32:17;;;;;;;5.55;1.70;;;8.30;91.50;;;;;;5054891;28;20057;-36
2024/01/01 10:34:45;;;;;;;5.95;1.80;;;8.20;91.50;;;;;;5054742;28;20025;-36
2024/01/01 10:37:12;;;;;;;6.43;1.50;;;8.30;91.50;;;;;;5053274;28;20051;-36
2024/01/01 10:39:40;;;;;;;5.55;1.77;;;8.20;91.50;;;;;;5053128;28;20032;-36
2024/01/01 10:42:06;;;;;;;3.80;1.40;;;8.30;91.60;;;;;;5054587;28;20043;-36
2024/01/01 10:44:31;;;;;;;7.57;2.15;;;8.30;91.60;;;;;;5054415;28;20033;-35
2024/01/01 10:46:58;;;;;;;6.13;1.90;;;8.30;91.60;;;;;;5054559;28;20020;-36
2024/01/01 10:49:31;;;;;;;4.88;1.70;;;8.30;91.60;;;;;;5054716;28;20029;-37
2024/01/01 10:52:28;;;;;;;10.23;2.60;;;8.40;91.60;;;;;;5053031;28;20029;-37
2024/01/01 10:55:23;;;;;;;5.22;1.70;;;8.30;91.60;;;;;;5054332;28;20493;-37
2024/01/01 10:58:03;;;;;;;6.40;1.77;;;8.30;91.60;;;;;;5054020;28;20036;-36
2024/01/01 11:00:41;;;;;;;4.70;1.75;;;8.40;91.60;;;;;;5053822;28;20040;-36
2024/01/01 11:03:13;;;;;;;3.55;1.50;;;8.40;91.60;;;;;;5053842;28;20025;-36
2024/01/01 11:05:38;;;;;;;3.83;1.50;;;8.40;91.60;;;;;;5053715;28;20021;-36
2024/01/01 11:08:04;;;;;;;5.28;1.73;;;8.40;91.70;;;;;;5053907;28;20029;-37
2024/01/01 11:10:37;;;;;;;7.43;2.10;;;8.50;91.80;;;;;;5053819;28;20029;-36
2024/01/01 11:13:04;;;;;;;6.88;1.65;;;8.70;91.80;;;;;;5054152;28;20044;-37
2024/01/01 11:15:48;;;;;;;6.75;1.67;;;8.80;91.70;;;;;;5053673;28;20443;-37
2024/01/01 11:18:18;;;;;;;7.53;1.90;;;8.90;91.60;;;;;;5054082;28;20108;-37
2024/01/01 11:20:51;;;;;;;9.27;2.50;;;8.90;91.60;;;;;;5053464;28;20029;-37
2024/01/01 11:23:38;;;;;;;6.95;1.77;;;8.90;91.50;;;;;;5053607;28;20529;-37
2024/01/01 11:26:22;;;;;;;4.53;1.80;;;8.90;91.50;;;;;;5053847;28;20025;-36
2024/01/01 11:28:49;;;;;;;6.15;1.70;;;8.80;91.50;;;;;;5053457;28;20033;-36
2024/01/01 11:31:15;;;;;;;6.35;2.08;;;8.70;91.50;;;;;;5053801;28;20028;-36
2024/01/01 11:33:41;;;;;;;5.07;1.70;;;8.70;91.50;;;;;;5053142;28;20420;-37
2024/01/01 11:36:10;;;;;;;6.50;1.80;;;8.70;91.60;;;;;;5053175;28;20040;-36
2024/01/01 11:38:36;;;;;;;7.10;1.80;;;8.60;91.60;;;;;;5052460;28;20497;-36
2024/01/01 11:41:01;;;;;;;5.97;1.50;;;8.60;91.60;;;;;;5053330;28;20086;-37
2024/01/01 11:43:27;;;;;;;4.90;1.60;;;8.60;91.60;;;;;;5053250;28;20128;-36
2024/01/01 11:45:56;;;;;;;8.35;2.13;;;8.60;91.50;;;;;;5053177;28;20033;-37
2024/01/01 11:48:22;;;;;;;7.07;2.17;;;8.70;91.60;;;;;;5053107;28;20033;-35
2024/01/01 11:50:49;;;;;;;5.07;1.52;;;8.70;91.50;;;;;;5053374;28;20029;-35
2024/01/01 11:53:23;;;;;;;6.68;1.92;;;8.80;91.40;;;;;;5053147;28;20036;-37
2024/01/01 11:55:50;;;;;;;4.43;1.65;;;8.80;91.30;;;;;;5053297;28;20102;-36
2024/01/01 11:58:17;;;;;;;5.60;1.58;;;8.90;91.30;;;;;;5052947;28;20029;-35
2024/01/01 12:00:43;;;;;;;6.97;2.00;;;8.90;91.30;;;;;;5053295;28;20041;-37
2024/01/01 12:03:09;;;;;;;5.28;1.60;;;8.90;91.20;;;;;;5052717;28;20539;-36
2024/01/01 12:05:34;;;;;;;4.82;1.70;;;8.90;91.20;;;;;;5052838;28;20029;-36
2024/01/01 12:08:12;;;;;;;3.47;1.40;;;8.90;91.20;;;;;;5053171;28;20025;-36
2024/01/01 12:10:37;;;;;;;7.85;2.00;;;8.90;91.10;;;;;;5053242;28;20488;-37
2024/01/01 12:13:03;;;;;;;4.20;1.80;;;8.90;91.10;;;;;;5052924;28;20104;-38
2024/01/01 12:15:32;;;;;;;7.13;1.70;;;8.80;91.00;;;;;;5052488;28;20029;-36
2024/01/01 12:17:58;;;;;;;7.45;1.92;;;8.80;91.10;;;;;;5053210;28;20559;-37
2024/01/01 12:20:24;;;;;;;6.10;1.80;;;8.80;91.10;;;;;;5052599;28;20037;-38
2024/01/01 12:23:10;;;;;;;7.93;2.20;;;8.80;91.10;;;;;;5052735;28;20036;-37
2024/01/01 12:25:36;;;;;;;7.13;1.90;;;8.80;91.10;;;;;;5052741;28;20028;-36
2024/01/01 12:28:06;;;;;;;5.68;1.90;;;8.70;91.10;;;;;;5052421;28;20029;-37
2024/01/01 12:30:32;;;;;;;8.07;2.10;;;8.70;91.00;;;;;;5052511;28;20037;-37
2024/01/01 12:32:58;;;;;;;8.15;1.90;;;8.70;91.10;;;;;;5052209;28;20080;-36
2024/01/01 12:35:24;;;;;;;7.85;1.80;;;8.70;91.20;;;;;;5052627;28;20056;-36
2024/01/01 12:37:51;;;;;;;5.93;1.45;;;8.80;91.20;;;;;;5052166;28;20041;-36
2024/01/01 12:40:17;;;;;;;11.07;2.45;;;8.90;91.20;;;;;;5052299;28;20388;-37
2024/01/01 12:42:43;;;;;;;8.77;2.40;;;9.00;91.00;;;;;;5052152;28;20033;-36
2024/01/01 12:45:09;;;;;;;7.43;2.08;;;9.20;90.80;;;;;;5052503;28;20434;-36
2024/01/01 12:47:35;;;;;;;8.88;1.95;;;9.30;90.70;;;;;;5052524;28;20021;-36
2024/01/01 12:50:01;;;;;;;9.15;2.25;;;9.30;90.60;;;;;;5051702;28;20598;-37
2024/01/01 12:52:26;;;;;;;9.75;1.88;;;9.30;90.60;;;;;;5052435;28;20261;-36